sensor_id;sensor_type;location;lat;lon;timestamp;P1;durP1;ratioP1;P2;durP2;ratioP2
70228;SDS011;57617;51.988;5.854;2023-07-28T18:40:23;6.20;;;3.72;;
70228;SDS011;57617;51.988;5.854;2023-07-28T18:42:49;9.55;;;4.05;;
70228;SDS011;57617;51.988;5.854;2023-07-28T18:45:14;5.07;;;3.75;;
70228;SDS011;57617;51.988;5.854;2023-07-28T18:47:39;7.35;;;3.53;;
70228;SDS011;57617;51.988;5.854;2023-07-28T18:50:05;5.90;;;3.67;;
70228;SDS011;57617;51.988;5.854;2023-07-28T18:52:31;6.03;;;4.22;;
70228;SDS011;57617;51.988;5.854;2023-07-28T18:54:56;5.57;;;4.00;;
70228;SDS011;57617;51.988;5.854;2023-07-28T18:57:21;5.97;;;3.85;;
70228;SDS011;57617;51.988;5.854;2023-07-28T18:59:47;8.70;;;4.20;;
70228;SDS011;57617;51.988;5.854;2023-07-28T19:02:12;7.20;;;3.80;;
70228;SDS011;57617;51.988;5.854;2023-07-28T19:04:37;7.55;;;3.65;;
70228;SDS011;57617;51.988;5.854;2023-07-28T19:07:03;4.22;;;3.33;;
70228;SDS011;57617;51.988;5.854;2023-07-28T19:09:28;5.57;;;3.60;;
70228;SDS011;57617;51.988;5.854;2023-07-28T19:11:53;8.07;;;4.03;;
70228;SDS011;57617;51.988;5.854;2023-07-28T19:14:19;7.90;;;4.60;;
70228;SDS011;57617;51.988;5.854;2023-07-28T19:16:46;6.00;;;3.65;;
70228;SDS011;57617;51.988;5.854;2023-07-28T19:19:12;7.40;;;4.07;;
70228;SDS011;57617;51.988;5.854;2023-07-28T19:21:37;7.80;;;4.28;;
70228;SDS011;57617;51.988;5.854;2023-07-28T19:24:02;9.35;;;4.15;;
70228;SDS011;57617;51.988;5.854;2023-07-28T19:26:28;6.75;;;4.40;;
70228;SDS011;57617;51.988;5.854;2023-07-28T19:28:53;6.35;;;3.90;;
70228;SDS011;57617;51.988;5.854;2023-07-28T19:31:18;9.35;;;4.20;;
70228;SDS011;57617;51.988;5.854;2023-07-28T19:33:44;9.93;;;4.63;;
70228;SDS011;57617;51.988;5.854;2023-07-28T19:36:09;5.90;;;4.28;;
70228;SDS011;57617;51.988;5.854;2023-07-28T19:38:35;7.57;;;3.80;;
70228;SDS011;57617;51.988;5.854;2023-07-28T19:41:00;10.07;;;4.30;;
70228;SDS011;57617;51.988;5.854;2023-07-28T19:43:26;9.18;;;4.35;;
70228;SDS011;57617;51.988;5.854;2023-07-28T19:45:51;6.75;;;3.92;;
70228;SDS011;57617;51.988;5.854;2023-07-28T19:48:17;7.63;;;4.28;;
70228;SDS011;57617;51.988;5.854;2023-07-28T19:50:42;7.93;;;4.30;;
70228;SDS011;57617;51.988;5.854;2023-07-28T19:53:08;11.10;;;4.47;;
70228;SDS011;57617;51.988;5.854;2023-07-28T19:55:33;11.27;;;4.80;;
70228;SDS011;57617;51.988;5.854;2023-07-28T19:57:59;10.77;;;4.35;;
70228;SDS011;57617;51.988;5.854;2023-07-28T20:00:26;12.73;;;4.13;;
70228;SDS011;57617;51.988;5.854;2023-07-28T20:02:52;6.63;;;4.40;;
70228;SDS011;57617;51.988;5.854;2023-07-28T20:05:17;9.82;;;4.35;;
70228;SDS011;57617;51.988;5.854;2023-07-28T20:07:43;6.60;;;4.47;;
70228;SDS011;57617;51.988;5.854;2023-07-28T20:10:09;6.22;;;4.47;;
70228;SDS011;57617;51.988;5.854;2023-07-28T20:12:35;8.00;;;4.50;;
70228;SDS011;57617;51.988;5.854;2023-07-28T20:15:00;6.43;;;4.40;;
70228;SDS011;57617;51.988;5.854;2023-07-28T20:17:26;10.10;;;4.38;;
70228;SDS011;57617;51.988;5.854;2023-07-28T20:19:52;9.65;;;4.22;;
70228;SDS011;57617;51.988;5.854;2023-07-28T20:22:17;7.40;;;4.13;;
70228;SDS011;57617;51.988;5.854;2023-07-28T20:24:42;7.72;;;4.13;;
70228;SDS011;57617;51.988;5.854;2023-07-28T20:27:08;10.35;;;4.63;;
70228;SDS011;57617;51.988;5.854;2023-07-28T20:29:33;6.72;;;4.10;;
70228;SDS011;57617;51.988;5.854;2023-07-28T20:31:59;10.13;;;4.75;;
70228;SDS011;57617;51.988;5.854;2023-07-28T20:34:24;7.97;;;4.60;;
70228;SDS011;57617;51.988;5.854;2023-07-28T20:36:51;8.68;;;4.35;;
70228;SDS011;57617;51.988;5.854;2023-07-28T20:39:16;7.53;;;4.63;;
70228;SDS011;57617;51.988;5.854;2023-07-28T20:41:42;9.82;;;4.20;;
70228;SDS011;57617;51.988;5.854;2023-07-28T20:44:07;6.72;;;4.40;;
70228;SDS011;57617;51.988;5.854;2023-07-28T20:46:33;9.57;;;4.10;;
70228;SDS011;57617;51.988;5.854;2023-07-28T20:48:58;10.50;;;4.55;;
70228;SDS011;57617;51.988;5.854;2023-07-28T20:51:24;10.45;;;4.35;;
70228;SDS011;57617;51.988;5.854;2023-07-28T20:53:49;10.35;;;4.28;;
70228;SDS011;57617;51.988;5.854;2023-07-28T20:56:14;9.57;;;4.32;;
70228;SDS011;57617;51.988;5.854;2023-07-28T20:58:39;8.98;;;4.40;;
70228;SDS011;57617;51.988;5.854;2023-07-28T21:01:06;9.88;;;4.82;;
70228;SDS011;57617;51.988;5.854;2023-07-28T21:03:32;7.15;;;4.30;;
70228;SDS011;57617;51.988;5.854;2023-07-28T21:05:57;10.18;;;4.20;;
70228;SDS011;57617;51.988;5.854;2023-07-28T21:08:22;6.47;;;4.20;;
70228;SDS011;57617;51.988;5.854;2023-07-28T21:10:48;7.50;;;4.43;;
70228;SDS011;57617;51.988;5.854;2023-07-28T21:13:15;7.05;;;4.53;;
70228;SDS011;57617;51.988;5.854;2023-07-28T21:15:41;7.88;;;4.70;;
70228;SDS011;57617;51.988;5.854;2023-07-28T21:18:08;11.05;;;4.53;;
70228;SDS011;57617;51.988;5.854;2023-07-28T21:20:34;9.32;;;4.50;;
70228;SDS011;57617;51.988;5.854;2023-07-28T21:22:59;8.18;;;4.40;;
70228;SDS011;57617;51.988;5.854;2023-07-28T21:25:25;11.00;;;4.43;;
70228;SDS011;57617;51.988;5.854;2023-07-28T21:27:50;6.97;;;4.70;;
70228;SDS011;57617;51.988;5.854;2023-07-28T21:30:16;10.05;;;4.38;;
70228;SDS011;57617;51.988;5.854;2023-07-28T21:32:41;10.60;;;5.07;;
70228;SDS011;57617;51.988;5.854;2023-07-28T21:35:07;11.98;;;4.22;;
70228;SDS011;57617;51.988;5.854;2023-07-28T21:37:32;8.93;;;4.50;;
70228;SDS011;57617;51.988;5.854;2023-07-28T21:39:57;9.65;;;4.80;;
70228;SDS011;57617;51.988;5.854;2023-07-28T21:42:23;8.07;;;4.50;;
70228;SDS011;57617;51.988;5.854;2023-07-28T21:44:48;10.50;;;4.93;;
70228;SDS011;57617;51.988;5.854;2023-07-28T21:47:13;8.07;;;4.50;;
70228;SDS011;57617;51.988;5.854;2023-07-28T21:49:39;8.13;;;4.75;;
70228;SDS011;57617;51.988;5.854;2023-07-28T21:52:04;6.63;;;4.50;;
70228;SDS011;57617;51.988;5.854;2023-07-28T21:54:29;7.30;;;4.70;;
70228;SDS011;57617;51.988;5.854;2023-07-28T21:56:55;8.35;;;4.60;;
70228;SDS011;57617;51.988;5.854;2023-07-28T21:59:20;10.23;;;4.63;;
70228;SDS011;57617;51.988;5.854;2023-07-28T22:01:46;10.10;;;4.70;;
70228;SDS011;57617;51.988;5.854;2023-07-28T22:04:11;10.43;;;5.20;;
70228;SDS011;57617;51.988;5.854;2023-07-28T22:06:37;12.85;;;5.47;;
70228;SDS011;57617;51.988;5.854;2023-07-28T22:09:02;11.18;;;5.35;;
70228;SDS011;57617;51.988;5.854;2023-07-28T22:11:27;10.93;;;5.63;;
70228;SDS011;57617;51.988;5.854;2023-07-28T22:13:53;14.00;;;6.10;;
70228;SDS011;57617;51.988;5.854;2023-07-28T22:16:18;11.02;;;5.82;;
70228;SDS011;57617;51.988;5.854;2023-07-28T22:18:43;10.20;;;5.20;;
70228;SDS011;57617;51.988;5.854;2023-07-28T22:21:08;7.50;;;4.57;;
70228;SDS011;57617;51.988;5.854;2023-07-28T22:23:34;11.45;;;5.18;;
70228;SDS011;57617;51.988;5.854;2023-07-28T22:25:59;13.82;;;5.65;;
70228;SDS011;57617;51.988;5.854;2023-07-28T22:28:24;10.65;;;6.00;;
70228;SDS011;57617;51.988;5.854;2023-07-28T22:30:50;12.40;;;6.80;;
70228;SDS011;57617;51.988;5.854;2023-07-28T22:33:16;12.25;;;7.22;;
70228;SDS011;57617;51.988;5.854;2023-07-28T22:35:41;12.95;;;6.28;;
70228;SDS011;57617;51.988;5.854;2023-07-28T22:38:07;13.18;;;5.93;;
70228;SDS011;57617;51.988;5.854;2023-07-28T22:40:32;11.75;;;6.53;;
70228;SDS011;57617;51.988;5.854;2023-07-28T22:42:58;13.38;;;6.93;;
70228;SDS011;57617;51.988;5.854;2023-07-28T22:45:23;12.57;;;7.15;;
70228;SDS011;57617;51.988;5.854;2023-07-28T22:47:49;11.77;;;6.38;;
70228;SDS011;57617;51.988;5.854;2023-07-28T22:50:14;13.68;;;6.45;;
70228;SDS011;57617;51.988;5.854;2023-07-28T22:52:39;13.38;;;7.00;;
70228;SDS011;57617;51.988;5.854;2023-07-28T22:55:05;12.35;;;7.70;;
70228;SDS011;57617;51.988;5.854;2023-07-28T22:57:31;18.08;;;8.60;;
70228;SDS011;57617;51.988;5.854;2023-07-28T22:59:57;11.73;;;7.45;;
70228;SDS011;57617;51.988;5.854;2023-07-28T23:02:22;13.20;;;7.35;;
70228;SDS011;57617;51.988;5.854;2023-07-28T23:04:47;10.13;;;6.97;;
70228;SDS011;57617;51.988;5.854;2023-07-28T23:07:13;14.80;;;7.13;;
70228;SDS011;57617;51.988;5.854;2023-07-28T23:09:41;13.73;;;6.85;;
70228;SDS011;57617;51.988;5.854;2023-07-28T23:12:08;12.02;;;7.47;;
70228;SDS011;57617;51.988;5.854;2023-07-28T23:14:34;12.27;;;8.05;;
70228;SDS011;57617;51.988;5.854;2023-07-28T23:16:59;12.32;;;6.95;;
70228;SDS011;57617;51.988;5.854;2023-07-28T23:19:25;12.82;;;7.03;;
70228;SDS011;57617;51.988;5.854;2023-07-28T23:21:50;15.60;;;7.18;;
70228;SDS011;57617;51.988;5.854;2023-07-28T23:24:15;15.40;;;8.25;;
70228;SDS011;57617;51.988;5.854;2023-07-28T23:26:41;13.43;;;7.53;;
70228;SDS011;57617;51.988;5.854;2023-07-28T23:29:06;13.05;;;7.68;;
70228;SDS011;57617;51.988;5.854;2023-07-28T23:31:31;13.30;;;8.35;;
70228;SDS011;57617;51.988;5.854;2023-07-28T23:33:57;14.40;;;8.60;;
70228;SDS011;57617;51.988;5.854;2023-07-28T23:36:22;14.77;;;8.05;;
70228;SDS011;57617;51.988;5.854;2023-07-28T23:38:48;16.70;;;7.95;;
70228;SDS011;57617;51.988;5.854;2023-07-28T23:41:14;15.95;;;8.35;;
70228;SDS011;57617;51.988;5.854;2023-07-28T23:43:41;17.25;;;8.30;;
70228;SDS011;57617;51.988;5.854;2023-07-28T23:46:07;16.38;;;7.90;;
70228;SDS011;57617;51.988;5.854;2023-07-28T23:48:33;17.98;;;8.85;;
70228;SDS011;57617;51.988;5.854;2023-07-28T23:50:58;13.07;;;7.95;;
70228;SDS011;57617;51.988;5.854;2023-07-28T23:53:24;16.42;;;8.38;;
70228;SDS011;57617;51.988;5.854;2023-07-28T23:55:50;17.48;;;10.07;;
70228;SDS011;57617;51.988;5.854;2023-07-28T23:58:16;16.48;;;9.38;;
